Terminal Aerodrome Forecast
Issued by NWS St Louis, MO

Home | Current Version | Previous Version | Graphics & Text | Print | Product List | Glossary Off
Versions: 1 2 3 4 5 6 7 8 9 10 11 12 13 14 15 16 17 18 19 20 21 22 23 24 25 26 27 28

612
FTUS43 KLSX 122321
TAFSTL
TAF
KSTL 122321Z 1300/1406 33010KT P6SM SCT250
     FM131900 01004KT P6SM SCT200
     FM132300 07004KT P6SM BKN130=

USA.gov is the U.S. government's official web portal to all federal, state and local government web resources and services.